Time;durP1;ratioP1;P1;durP2;ratioP2;P2;SDS_P1;SDS_P2;PMS_P1;PMS_P2;Temp;Humidity;BMP_temperature;BMP_pressure;BME280_temperature;BME280_humidity;BME280_pressure;Samples;Min_cycle;Max_cycle;Signal;HPM_P1;HPM_P2
2020/12/10 00:03:03;;;;;;;20.00;12.33;;;;;;;;;;4962867;28;20621;-76
2020/12/10 00:06:08;;;;;;;18.80;12.00;;;;;;;;;;4997029;28;20669;-76
2020/12/10 00:09:12;;;;;;;21.97;13.37;;;;;;;;;;5000304;28;21154;-76
2020/12/10 00:12:16;;;;;;;21.17;13.23;;;;;;;;;;5015876;28;20541;-76
2020/12/10 00:15:21;;;;;;;21.00;13.33;;;;;;;;;;4990909;28;20589;-76
2020/12/10 00:18:25;;;;;;;21.47;14.10;;;;;;;;;;4984653;28;20980;-77
2020/12/10 00:21:29;;;;;;;24.07;14.90;;;;;;;;;;4973535;28;21211;-76
2020/12/10 00:24:34;;;;;;;23.20;14.60;;;;;;;;;;5006156;28;20596;-76
2020/12/10 00:27:41;;;;;;;22.57;14.63;;;;;;;;;;5016214;28;20651;-76
2020/12/10 00:30:45;;;;;;;21.93;14.53;;;;;;;;;;4972734;28;20589;-76
2020/12/10 00:33:49;;;;;;;21.37;14.10;;;;;;;;;;4984331;28;21135;-76
2020/12/10 00:36:53;;;;;;;23.57;15.00;;;;;;;;;;5006183;28;20648;-77
2020/12/10 00:39:58;;;;;;;25.30;15.43;;;;;;;;;;5001747;28;20602;-76
2020/12/10 00:43:02;;;;;;;21.83;13.63;;;;;;;;;;4984799;28;20546;-76
2020/12/10 00:46:06;;;;;;;23.33;14.70;;;;;;;;;;4998233;28;20995;-77
2020/12/10 00:49:10;;;;;;;22.57;15.13;;;;;;;;;;4985293;28;20589;-77
2020/12/10 00:52:14;;;;;;;22.77;15.13;;;;;;;;;;4995195;28;20593;-77
2020/12/10 00:55:18;;;;;;;23.80;15.10;;;;;;;;;;4983954;28;20926;-77
2020/12/10 00:58:24;;;;;;;24.33;14.73;;;;;;;;;;4973301;28;20589;-76
2020/12/10 01:01:28;;;;;;;21.77;14.43;;;;;;;;;;5002782;28;20592;-76
2020/12/10 01:04:32;;;;;;;20.97;14.20;;;;;;;;;;5015602;28;20600;-76
2020/12/10 01:07:36;;;;;;;21.60;14.67;;;;;;;;;;4972865;28;20657;-76
2020/12/10 01:10:40;;;;;;;22.27;14.73;;;;;;;;;;4996178;28;20963;-76
2020/12/10 01:13:44;;;;;;;23.47;15.27;;;;;;;;;;4995926;28;20541;-77
2020/12/10 01:16:49;;;;;;;22.73;15.00;;;;;;;;;;4995494;28;20621;-76
2020/12/10 01:19:53;;;;;;;22.33;14.77;;;;;;;;;;4995918;28;20597;-76
2020/12/10 01:22:58;;;;;;;22.53;14.70;;;;;;;;;;4995947;28;20553;-76
2020/12/10 01:26:02;;;;;;;26.07;15.57;;;;;;;;;;4997600;28;20625;-76
2020/12/10 01:29:07;;;;;;;22.60;14.67;;;;;;;;;;5012506;28;20581;-76
2020/12/10 01:32:11;;;;;;;26.77;15.83;;;;;;;;;;4991915;28;20549;-76
2020/12/10 01:35:15;;;;;;;24.90;16.33;;;;;;;;;;4979194;28;20552;-76
2020/12/10 01:38:20;;;;;;;24.40;15.50;;;;;;;;;;4998052;28;20592;-76
2020/12/10 01:41:30;;;;;;;22.63;15.27;;;;;;;;;;5009931;28;20584;-77
2020/12/10 01:44:34;;;;;;;26.97;15.63;;;;;;;;;;5014612;28;20544;-77
2020/12/10 01:47:38;;;;;;;25.10;15.73;;;;;;;;;;4996460;28;20648;-76
2020/12/10 01:50:42;;;;;;;26.40;15.90;;;;;;;;;;4972139;28;20545;-77
2020/12/10 01:53:46;;;;;;;26.97;15.53;;;;;;;;;;4961131;28;20542;-77
2020/12/10 01:56:53;;;;;;;24.47;16.53;;;;;;;;;;4982883;28;20625;-76
2020/12/10 01:59:57;;;;;;;26.03;16.47;;;;;;;;;;4988625;28;21154;-77
2020/12/10 02:03:01;;;;;;;27.23;17.57;;;;;;;;;;5002553;28;20592;-78
2020/12/10 02:06:05;;;;;;;28.03;16.73;;;;;;;;;;4998540;28;20660;-77
2020/12/10 02:09:09;;;;;;;30.97;17.67;;;;;;;;;;4987186;28;20584;-77
2020/12/10 02:12:13;;;;;;;27.40;17.63;;;;;;;;;;5014384;28;20545;-77
2020/12/10 02:15:17;;;;;;;32.77;18.03;;;;;;;;;;5001674;28;21066;-77
2020/12/10 02:18:22;;;;;;;30.17;17.87;;;;;;;;;;4991958;28;20593;-77
2020/12/10 02:21:26;;;;;;;31.20;17.87;;;;;;;;;;4971979;28;20534;-77
2020/12/10 02:24:30;;;;;;;31.50;17.80;;;;;;;;;;4994387;28;20960;-77
2020/12/10 02:27:34;;;;;;;32.03;16.87;;;;;;;;;;4974325;28;20656;-77
2020/12/10 02:30:40;;;;;;;31.23;18.13;;;;;;;;;;4990447;28;20608;-77
2020/12/10 02:33:44;;;;;;;30.03;17.77;;;;;;;;;;5013633;28;20608;-77
2020/12/10 02:36:48;;;;;;;30.30;18.50;;;;;;;;;;4988457;28;20652;-77
2020/12/10 02:39:52;;;;;;;32.73;18.60;;;;;;;;;;4982762;28;20546;-78
2020/12/10 02:42:57;;;;;;;30.27;17.93;;;;;;;;;;4994276;28;20533;-78
2020/12/10 02:46:02;;;;;;;27.60;17.50;;;;;;;;;;5005158;28;20957;-77
2020/12/10 02:49:06;;;;;;;27.07;16.37;;;;;;;;;;4994648;28;20589;-77
2020/12/10 02:52:10;;;;;;;26.93;15.77;;;;;;;;;;4978034;28;21201;-77
2020/12/10 02:55:14;;;;;;;28.20;16.50;;;;;;;;;;4972373;28;20534;-77
2020/12/10 02:58:18;;;;;;;29.03;18.00;;;;;;;;;;5013393;28;20612;-77
2020/12/10 03:01:22;;;;;;;26.97;17.23;;;;;;;;;;5014443;28;20932;-77
2020/12/10 03:04:26;;;;;;;30.63;17.40;;;;;;;;;;4983234;28;20542;-77
2020/12/10 03:07:31;;;;;;;30.47;16.93;;;;;;;;;;4989232;28;21257;-77
2020/12/10 03:10:35;;;;;;;27.77;16.37;;;;;;;;;;4973068;28;20589;-78
2020/12/10 03:13:39;;;;;;;28.37;18.20;;;;;;;;;;4984098;28;20622;-78
2020/12/10 03:16:43;;;;;;;30.20;17.47;;;;;;;;;;4974037;28;20636;-78
2020/12/10 03:19:47;;;;;;;31.17;17.90;;;;;;;;;;4984600;28;20541;-78
2020/12/10 03:22:51;;;;;;;27.77;17.00;;;;;;;;;;4984925;28;20542;-78
2020/12/10 03:25:55;;;;;;;27.00;16.23;;;;;;;;;;4973407;28;21223;-78
2020/12/10 03:28:59;;;;;;;26.43;16.83;;;;;;;;;;5015402;28;20652;-78
2020/12/10 03:32:05;;;;;;;28.93;18.30;;;;;;;;;;4993140;28;20612;-78
2020/12/10 03:35:09;;;;;;;29.77;16.70;;;;;;;;;;5004421;28;20545;-78
2020/12/10 03:38:13;;;;;;;26.80;16.73;;;;;;;;;;4993084;28;21191;-78
2020/12/10 03:41:17;;;;;;;31.20;17.37;;;;;;;;;;4997289;28;20568;-78
2020/12/10 03:44:22;;;;;;;29.07;17.53;;;;;;;;;;4974347;28;20550;-77
2020/12/10 03:47:26;;;;;;;26.17;15.93;;;;;;;;;;5001543;28;20672;-78
2020/12/10 03:50:30;;;;;;;29.57;16.60;;;;;;;;;;5016825;28;20544;-78
2020/12/10 03:53:35;;;;;;;27.60;16.37;;;;;;;;;;5005397;28;20596;-78
2020/12/10 03:56:39;;;;;;;29.43;17.67;;;;;;;;;;5004621;28;20619;-78
2020/12/10 03:59:43;;;;;;;28.53;16.87;;;;;;;;;;4974860;28;20534;-78
2020/12/10 04:02:47;;;;;;;27.50;17.40;;;;;;;;;;4975179;28;20588;-78
2020/12/10 04:05:51;;;;;;;29.50;17.60;;;;;;;;;;4990156;23;20700;-73
2020/12/10 04:08:55;;;;;;;28.27;17.37;;;;;;;;;;4996416;28;20600;-73
2020/12/10 04:11:59;;;;;;;32.33;17.80;;;;;;;;;;4996992;28;20530;-73
2020/12/10 04:15:03;;;;;;;31.90;18.37;;;;;;;;;;4997235;28;20545;-73
2020/12/10 04:18:07;;;;;;;29.73;17.17;;;;;;;;;;4977176;28;20546;-73
2020/12/10 04:21:12;;;;;;;30.43;17.60;;;;;;;;;;4977399;28;20542;-73
2020/12/10 04:24:16;;;;;;;30.43;17.70;;;;;;;;;;4988828;28;20624;-73
2020/12/10 04:27:20;;;;;;;30.93;18.30;;;;;;;;;;4995161;28;20651;-73
2020/12/10 04:30:26;;;;;;;25.80;16.27;;;;;;;;;;4996678;28;20877;-73
2020/12/10 04:33:30;;;;;;;33.87;18.60;;;;;;;;;;4976604;28;20542;-73
2020/12/10 04:36:34;;;;;;;33.37;18.07;;;;;;;;;;4977042;28;20621;-73
2020/12/10 04:39:38;;;;;;;32.47;18.00;;;;;;;;;;4993129;28;20973;-73
2020/12/10 04:42:46;;;;;;;34.47;18.37;;;;;;;;;;4995921;28;20621;-73
2020/12/10 04:45:51;;;;;;;34.87;19.13;;;;;;;;;;4995494;28;20546;-73
2020/12/10 04:48:56;;;;;;;35.83;19.50;;;;;;;;;;4977054;28;20590;-73
2020/12/10 04:52:01;;;;;;;38.77;23.10;;;;;;;;;;4986851;28;20600;-73
2020/12/10 04:55:05;;;;;;;38.07;19.97;;;;;;;;;;4996056;28;21223;-73
2020/12/10 04:58:09;;;;;;;36.83;20.27;;;;;;;;;;4995844;28;20589;-73
2020/12/10 05:01:15;;;;;;;36.37;19.00;;;;;;;;;;4995487;28;20590;-73
2020/12/10 05:04:21;;;;;;;34.47;18.27;;;;;;;;;;4996320;28;20541;-73
2020/12/10 05:07:38;;;;;;;38.90;19.33;;;;;;;;;;4994376;28;20652;-73
2020/12/10 05:10:44;;;;;;;37.87;18.97;;;;;;;;;;4995332;28;20605;-73
2020/12/10 05:13:53;;;;;;;38.23;20.17;;;;;;;;;;4991631;28;20598;-73
2020/12/10 05:17:12;;;;;;;37.20;19.63;;;;;;;;;;4995413;28;21227;-73
2020/12/10 05:20:16;;;;;;;33.37;18.57;;;;;;;;;;4995729;28;20886;-73
2020/12/10 05:23:33;;;;;;;36.60;19.13;;;;;;;;;;4975379;28;21105;-73
2020/12/10 05:26:37;;;;;;;39.03;19.47;;;;;;;;;;4980335;28;20649;-73
2020/12/10 05:29:42;;;;;;;40.10;19.80;;;;;;;;;;4994738;28;20597;-73
2020/12/10 05:32:46;;;;;;;37.30;18.40;;;;;;;;;;4994919;28;21178;-72
2020/12/10 05:36:06;;;;;;;36.43;18.87;;;;;;;;;;4994522;28;21162;-73
2020/12/10 05:39:11;;;;;;;33.47;17.80;;;;;;;;;;4994145;28;20571;-73
2020/12/10 05:42:16;;;;;;;39.77;20.17;;;;;;;;;;4994857;28;20977;-73
2020/12/10 05:45:22;;;;;;;37.20;18.73;;;;;;;;;;4994583;28;20600;-73
2020/12/10 05:48:26;;;;;;;33.07;17.87;;;;;;;;;;4994589;28;20925;-73
2020/12/10 05:51:42;;;;;;;35.63;18.17;;;;;;;;;;4982848;28;20593;-74
2020/12/10 05:54:53;;;;;;;38.53;19.20;;;;;;;;;;4994508;28;20787;-73
2020/12/10 05:57:59;;;;;;;32.30;17.50;;;;;;;;;;4991052;28;20632;-73
2020/12/10 06:01:03;;;;;;;37.43;18.93;;;;;;;;;;4994712;28;20601;-72
2020/12/10 06:04:08;;;;;;;37.23;19.17;;;;;;;;;;4976036;28;20542;-73
2020/12/10 06:07:12;;;;;;;40.03;19.70;;;;;;;;;;4975024;28;20641;-73
2020/12/10 06:10:16;;;;;;;42.87;21.20;;;;;;;;;;4991351;28;20585;-73
2020/12/10 06:13:23;;;;;;;37.43;18.67;;;;;;;;;;4993220;28;20573;-74
2020/12/10 06:16:27;;;;;;;37.50;19.27;;;;;;;;;;4982468;28;20637;-73
2020/12/10 06:19:33;;;;;;;42.87;20.90;;;;;;;;;;4994400;28;21181;-73
2020/12/10 06:22:37;;;;;;;38.70;19.63;;;;;;;;;;4993366;28;20622;-73
2020/12/10 06:25:41;;;;;;;41.50;20.20;;;;;;;;;;4979888;28;20586;-74
2020/12/10 06:28:45;;;;;;;35.00;18.67;;;;;;;;;;4977743;28;20629;-73
2020/12/10 06:32:09;;;;;;;35.73;18.93;;;;;;;;;;4994582;28;20611;-74
2020/12/10 06:35:28;;;;;;;36.13;17.70;;;;;;;;;;4992142;28;20573;-73
2020/12/10 06:38:42;;;;;;;39.33;18.80;;;;;;;;;;4993590;28;21093;-73
2020/12/10 06:41:59;;;;;;;38.50;18.70;;;;;;;;;;4982505;28;20590;-73
2020/12/10 06:45:03;;;;;;;37.50;19.17;;;;;;;;;;4973801;28;20605;-73
2020/12/10 06:48:08;;;;;;;39.47;18.70;;;;;;;;;;4973925;28;21002;-73
2020/12/10 06:51:13;;;;;;;44.03;20.40;;;;;;;;;;4973648;28;20598;-73
2020/12/10 06:54:17;;;;;;;39.27;18.63;;;;;;;;;;4962792;28;20547;-74
2020/12/10 06:57:22;;;;;;;41.67;20.20;;;;;;;;;;4974573;28;20954;-74
2020/12/10 07:00:54;;;;;;;39.97;19.97;;;;;;;;;;4974532;28;20590;-74
2020/12/10 07:04:38;;;;;;;37.03;18.20;;;;;;;;;;4974143;28;20550;-74
2020/12/10 07:07:42;;;;;;;35.87;18.80;;;;;;;;;;4974548;28;21211;-74
2020/12/10 07:10:52;;;;;;;37.97;18.53;;;;;;;;;;4974331;28;20535;-75
2020/12/10 07:13:56;;;;;;;35.97;17.90;;;;;;;;;;4973795;28;20546;-75
2020/12/10 07:17:01;;;;;;;37.37;19.10;;;;;;;;;;4975372;28;20629;-75
2020/12/10 07:20:05;;;;;;;36.70;18.80;;;;;;;;;;4993183;28;20605;-74
2020/12/10 07:23:01;;;;;;;35.20;18.30;;;;;;;;;;5030463;23;20674;-74
2020/12/10 07:26:06;;;;;;;35.90;17.33;;;;;;;;;;5000348;23;21293;-75
2020/12/10 07:29:12;;;;;;;44.33;19.73;;;;;;;;;;5005468;28;20657;-74
2020/12/10 07:32:17;;;;;;;38.70;19.30;;;;;;;;;;4993312;28;20562;-74
2020/12/10 07:35:28;;;;;;;36.60;18.03;;;;;;;;;;5005660;28;20570;-73
2020/12/10 07:38:32;;;;;;;35.87;18.27;;;;;;;;;;4995456;28;20538;-73
2020/12/10 07:41:37;;;;;;;39.23;19.60;;;;;;;;;;5008734;28;21137;-73
2020/12/10 07:44:41;;;;;;;37.33;18.07;;;;;;;;;;5017156;28;20910;-73
2020/12/10 07:48:00;;;;;;;40.07;18.77;;;;;;;;;;5016836;28;20984;-73
2020/12/10 07:51:04;;;;;;;36.27;18.10;;;;;;;;;;5016288;28;20889;-73
2020/12/10 07:54:08;;;;;;;47.83;22.00;;;;;;;;;;4997442;28;20542;-73
2020/12/10 07:57:24;;;;;;;44.20;20.33;;;;;;;;;;4997061;28;20639;-73
2020/12/10 08:00:30;;;;;;;47.73;21.53;;;;;;;;;;4985303;28;20878;-73
2020/12/10 08:03:42;;;;;;;39.10;20.70;;;;;;;;;;4997325;28;20538;-73
2020/12/10 08:06:49;;;;;;;46.17;21.77;;;;;;;;;;4996969;28;20625;-73
2020/12/10 08:09:53;;;;;;;49.10;22.93;;;;;;;;;;4996913;28;21009;-74
2020/12/10 08:13:19;;;;;;;46.40;22.63;;;;;;;;;;4984687;28;20941;-73
2020/12/10 08:16:28;;;;;;;45.87;21.53;;;;;;;;;;4984702;28;20628;-76
2020/12/10 08:19:34;;;;;;;49.13;22.73;;;;;;;;;;4984596;28;20592;-76
2020/12/10 08:22:38;;;;;;;54.57;22.20;;;;;;;;;;4973787;28;20970;-76
2020/12/10 08:25:44;;;;;;;48.77;20.60;;;;;;;;;;4984401;28;20953;-77
2020/12/10 08:28:56;;;;;;;52.23;22.87;;;;;;;;;;5005119;28;20624;-74
2020/12/10 08:32:12;;;;;;;44.97;21.63;;;;;;;;;;5003791;28;20557;-75
2020/12/10 08:35:16;;;;;;;52.40;22.93;;;;;;;;;;5016441;28;20541;-75
2020/12/10 08:38:23;;;;;;;62.50;26.23;;;;;;;;;;5016186;28;20915;-75
2020/12/10 08:41:32;;;;;;;55.53;23.53;;;;;;;;;;5004073;28;20620;-75
2020/12/10 08:44:47;;;;;;;47.47;23.47;;;;;;;;;;4992958;28;21086;-75
2020/12/10 08:47:51;;;;;;;50.27;21.83;;;;;;;;;;5015536;28;20624;-75
2020/12/10 08:50:57;;;;;;;44.77;21.10;;;;;;;;;;4992475;28;20599;-75
2020/12/10 08:54:02;;;;;;;50.97;20.63;;;;;;;;;;4992163;28;21150;-74
2020/12/10 08:57:10;;;;;;;57.60;27.33;;;;;;;;;;5015619;28;20636;-75
2020/12/10 09:00:14;;;;;;;61.23;26.30;;;;;;;;;;5011444;28;20584;-75
2020/12/10 09:03:18;;;;;;;60.83;25.60;;;;;;;;;;4999403;28;20585;-74
2020/12/10 09:06:23;;;;;;;62.27;24.50;;;;;;;;;;5003413;28;20627;-75
2020/12/10 09:09:27;;;;;;;64.53;24.20;;;;;;;;;;5015460;28;20592;-75
2020/12/10 09:12:31;;;;;;;59.73;23.80;;;;;;;;;;4986150;28;20578;-75
2020/12/10 09:15:37;;;;;;;58.17;23.50;;;;;;;;;;4995693;28;20550;-75
2020/12/10 09:18:41;;;;;;;58.00;22.53;;;;;;;;;;4972770;28;20550;-75
2020/12/10 09:21:45;;;;;;;51.60;19.73;;;;;;;;;;4987462;28;20621;-75
2020/12/10 09:24:49;;;;;;;54.60;22.03;;;;;;;;;;4983625;28;20617;-75
2020/12/10 09:27:53;;;;;;;52.13;20.77;;;;;;;;;;4983763;28;20617;-74
2020/12/10 09:30:58;;;;;;;47.67;20.47;;;;;;;;;;4995158;28;20590;-75
2020/12/10 09:34:02;;;;;;;45.83;19.60;;;;;;;;;;5004165;28;20580;-75
2020/12/10 09:37:06;;;;;;;47.93;21.13;;;;;;;;;;4990043;28;20644;-75
2020/12/10 09:40:13;;;;;;;49.13;20.30;;;;;;;;;;4983321;28;20550;-74
2020/12/10 09:43:17;;;;;;;48.03;20.47;;;;;;;;;;4997825;28;21166;-73
2020/12/10 09:46:21;;;;;;;45.97;19.53;;;;;;;;;;5014680;28;20967;-74
2020/12/10 09:49:26;;;;;;;48.63;20.33;;;;;;;;;;5014913;28;21134;-74
2020/12/10 09:52:32;;;;;;;53.40;19.60;;;;;;;;;;5002585;28;20548;-75
2020/12/10 09:58:59;;;;;;;48.07;20.23;;;;;;;;;;4995019;28;20594;-75
2020/12/10 10:02:04;;;;;;;48.30;20.90;;;;;;;;;;4994650;28;20597;-74
2020/12/10 10:05:08;;;;;;;51.63;22.60;;;;;;;;;;5004569;28;20617;-75
2020/12/10 10:08:12;;;;;;;50.80;20.83;;;;;;;;;;4990672;28;20635;-75
2020/12/10 10:11:18;;;;;;;59.60;25.40;;;;;;;;;;4990714;28;20533;-75
2020/12/10 10:14:22;;;;;;;50.97;20.47;;;;;;;;;;5002271;28;20541;-74
2020/12/10 10:17:26;;;;;;;46.10;18.40;;;;;;;;;;5003468;28;20640;-75
2020/12/10 10:20:30;;;;;;;46.53;18.47;;;;;;;;;;4982834;28;20657;-74
2020/12/10 10:23:34;;;;;;;44.47;20.33;;;;;;;;;;4994331;28;20589;-74
2020/12/10 10:26:38;;;;;;;44.33;18.20;;;;;;;;;;4997946;28;20663;-75
2020/12/10 10:29:42;;;;;;;51.23;20.37;;;;;;;;;;5000712;28;21215;-74
2020/12/10 10:32:46;;;;;;;51.60;19.93;;;;;;;;;;4994685;28;20545;-75
2020/12/10 10:35:53;;;;;;;43.13;19.40;;;;;;;;;;4994494;28;20970;-74
2020/12/10 10:38:57;;;;;;;38.53;16.37;;;;;;;;;;4994305;28;20629;-74
2020/12/10 10:42:34;;;;;;;37.27;15.47;;;;;;;;;;4994745;28;20553;-74
2020/12/10 10:45:39;;;;;;;36.77;16.70;;;;;;;;;;4992064;28;20621;-77
2020/12/10 10:48:43;;;;;;;36.90;16.23;;;;;;;;;;5014736;28;20540;-80
2020/12/10 10:51:49;;;;;;;38.50;16.70;;;;;;;;;;5005950;28;20537;-79
2020/12/10 10:54:53;;;;;;;33.53;16.20;;;;;;;;;;5010141;28;20593;-81
2020/12/10 10:57:57;;;;;;;32.60;15.67;;;;;;;;;;5014662;28;20644;-79
2020/12/10 11:01:02;;;;;;;35.10;15.43;;;;;;;;;;4998940;28;20616;-75
2020/12/10 11:04:06;;;;;;;34.23;16.20;;;;;;;;;;5011875;28;20620;-75
2020/12/10 11:07:10;;;;;;;38.73;17.60;;;;;;;;;;5007097;28;21016;-75
2020/12/10 11:10:21;;;;;;;32.10;15.97;;;;;;;;;;4994446;28;20605;-75
2020/12/10 11:13:25;;;;;;;32.83;16.23;;;;;;;;;;5006048;28;20624;-75
2020/12/10 11:16:29;;;;;;;35.03;16.67;;;;;;;;;;4999829;28;20667;-75
2020/12/10 11:19:33;;;;;;;34.57;16.57;;;;;;;;;;4998268;28;20578;-75
2020/12/10 11:22:38;;;;;;;35.93;17.40;;;;;;;;;;4992719;28;20999;-75
2020/12/10 11:25:42;;;;;;;34.37;16.67;;;;;;;;;;5022735;23;20683;-75
2020/12/10 11:28:13;;;;;;;35.60;16.97;;;;;;;;;;5011546;23;21253;-75
2020/12/10 11:31:17;;;;;;;31.73;16.23;;;;;;;;;;4981495;28;21143;-75
2020/12/10 11:34:22;;;;;;;35.20;16.80;;;;;;;;;;4993506;28;20595;-75
2020/12/10 11:37:26;;;;;;;32.83;15.93;;;;;;;;;;5012926;28;20636;-75
2020/12/10 11:40:30;;;;;;;30.27;14.73;;;;;;;;;;5013322;28;20548;-75
2020/12/10 11:43:35;;;;;;;31.53;14.80;;;;;;;;;;5013508;28;21079;-75
2020/12/10 11:46:40;;;;;;;30.57;15.50;;;;;;;;;;4994938;28;20649;-77
2020/12/10 11:49:45;;;;;;;31.27;15.53;;;;;;;;;;4993384;28;20625;-76
2020/12/10 11:52:51;;;;;;;29.10;14.20;;;;;;;;;;4993045;28;21072;-76
2020/12/10 11:55:56;;;;;;;33.33;15.07;;;;;;;;;;5010865;28;20644;-76
2020/12/10 11:59:00;;;;;;;33.53;15.40;;;;;;;;;;5011874;28;20608;-77
2020/12/10 12:02:07;;;;;;;34.03;15.40;;;;;;;;;;4992609;28;20593;-77
2020/12/10 12:05:11;;;;;;;31.60;16.07;;;;;;;;;;5004237;28;20603;-77
2020/12/10 12:08:15;;;;;;;30.37;13.93;;;;;;;;;;5012631;28;21177;-77
2020/12/10 12:11:25;;;;;;;28.73;14.43;;;;;;;;;;5012991;28;20629;-76
2020/12/10 12:14:30;;;;;;;29.33;14.20;;;;;;;;;;4999585;28;20592;-76
2020/12/10 12:17:34;;;;;;;29.13;14.67;;;;;;;;;;5010011;28;20643;-77
2020/12/10 12:20:38;;;;;;;29.03;14.87;;;;;;;;;;4981623;28;20530;-77
2020/12/10 12:23:44;;;;;;;28.43;15.47;;;;;;;;;;4993263;28;20546;-76
2020/12/10 12:26:48;;;;;;;35.40;16.33;;;;;;;;;;4994512;28;20637;-77
2020/12/10 12:29:52;;;;;;;31.40;15.90;;;;;;;;;;5005015;28;20623;-78
2020/12/10 12:32:56;;;;;;;35.10;18.50;;;;;;;;;;5006903;28;21093;-77
2020/12/10 12:36:00;;;;;;;38.50;17.43;;;;;;;;;;4996370;28;20659;-77
2020/12/10 12:39:05;;;;;;;34.07;16.57;;;;;;;;;;5002041;28;20580;-78
2020/12/10 12:42:09;;;;;;;34.37;16.93;;;;;;;;;;5017392;28;20584;-78
2020/12/10 12:45:14;;;;;;;38.77;19.70;;;;;;;;;;5008075;28;20588;-77
2020/12/10 12:48:18;;;;;;;43.07;20.33;;;;;;;;;;5015536;28;20545;-77
2020/12/10 12:51:22;;;;;;;37.20;18.97;;;;;;;;;;5026105;28;21018;-77
2020/12/10 12:54:26;;;;;;;40.63;19.50;;;;;;;;;;4997041;28;20935;-77
2020/12/10 12:57:30;;;;;;;38.57;18.33;;;;;;;;;;4996145;28;20635;-77
2020/12/10 13:00:34;;;;;;;33.20;17.77;;;;;;;;;;4996075;28;20621;-76
2020/12/10 13:03:38;;;;;;;34.90;17.27;;;;;;;;;;4996112;28;21182;-77
2020/12/10 13:06:46;;;;;;;34.87;15.97;;;;;;;;;;4996096;28;20620;-76
2020/12/10 13:09:50;;;;;;;33.40;16.50;;;;;;;;;;4994921;28;20601;-77
2020/12/10 13:12:54;;;;;;;34.70;17.27;;;;;;;;;;5007056;28;21141;-75
2020/12/10 13:16:02;;;;;;;34.87;17.47;;;;;;;;;;5015629;28;20620;-76
2020/12/10 13:19:06;;;;;;;35.83;17.30;;;;;;;;;;5016041;28;20540;-78
2020/12/10 13:22:10;;;;;;;34.53;16.57;;;;;;;;;;5005552;28;20621;-78
2020/12/10 13:25:14;;;;;;;33.20;17.23;;;;;;;;;;4999608;28;20550;-78
2020/12/10 13:28:19;;;;;;;35.83;17.73;;;;;;;;;;5004958;28;20593;-78
2020/12/10 13:31:34;;;;;;;40.57;19.20;;;;;;;;;;5018002;28;20624;-79
2020/12/10 13:34:37;;;;;;;44.90;24.17;;;;;;;;;;5029094;28;21096;-78
2020/12/10 13:37:42;;;;;;;41.37;20.70;;;;;;;;;;5004786;28;20641;-78
2020/12/10 13:40:46;;;;;;;41.60;19.43;;;;;;;;;;4994130;28;20592;-77
2020/12/10 13:43:51;;;;;;;39.80;18.97;;;;;;;;;;5005880;28;20604;-78
2020/12/10 13:46:55;;;;;;;39.63;18.77;;;;;;;;;;4983557;28;20648;-78
2020/12/10 13:49:59;;;;;;;40.80;19.10;;;;;;;;;;4997162;28;20585;-78
2020/12/10 13:53:04;;;;;;;40.60;19.73;;;;;;;;;;5002304;28;20565;-78
2020/12/10 13:56:08;;;;;;;48.03;19.33;;;;;;;;;;5006600;28;20636;-78
2020/12/10 13:59:12;;;;;;;62.97;29.00;;;;;;;;;;4999857;28;20592;-78
2020/12/10 14:02:16;;;;;;;67.57;30.00;;;;;;;;;;4996805;28;20551;-78
2020/12/10 14:05:21;;;;;;;56.87;27.47;;;;;;;;;;5001678;28;20589;-79
2020/12/10 14:08:25;;;;;;;39.10;20.57;;;;;;;;;;4999046;28;20588;-79
2020/12/10 14:11:29;;;;;;;39.70;18.60;;;;;;;;;;5017996;28;20960;-79
2020/12/10 14:14:35;;;;;;;43.07;18.73;;;;;;;;;;5000731;28;20544;-79
2020/12/10 14:17:39;;;;;;;37.20;18.83;;;;;;;;;;5001946;28;20625;-79
2020/12/10 14:20:44;;;;;;;37.80;17.87;;;;;;;;;;5000720;28;20605;-79
2020/12/10 14:23:49;;;;;;;32.23;15.43;;;;;;;;;;4999235;28;20612;-77
2020/12/10 14:26:54;;;;;;;30.27;15.77;;;;;;;;;;5000044;28;20661;-78
2020/12/10 14:29:58;;;;;;;29.60;14.60;;;;;;;;;;4988360;28;20601;-78
2020/12/10 14:33:02;;;;;;;28.87;15.00;;;;;;;;;;5010677;28;20555;-78
2020/12/10 14:36:06;;;;;;;30.03;15.17;;;;;;;;;;5010401;28;20627;-78
2020/12/10 14:39:11;;;;;;;31.60;14.90;;;;;;;;;;4999082;28;20546;-78
2020/12/10 14:42:15;;;;;;;30.93;15.90;;;;;;;;;;4999194;28;20538;-78
2020/12/10 14:45:19;;;;;;;30.63;14.80;;;;;;;;;;4998330;28;20545;-77
2020/12/10 14:48:23;;;;;;;24.17;13.30;;;;;;;;;;4997902;28;20546;-78
2020/12/10 14:51:27;;;;;;;31.73;15.50;;;;;;;;;;4996875;28;20589;-78
2020/12/10 14:54:32;;;;;;;29.83;14.70;;;;;;;;;;5007896;28;20542;-78
2020/12/10 14:57:36;;;;;;;29.63;15.60;;;;;;;;;;4996839;28;20620;-80
2020/12/10 15:00:43;;;;;;;33.10;15.63;;;;;;;;;;4985461;28;20550;-80
2020/12/10 15:03:48;;;;;;;31.90;15.37;;;;;;;;;;4985839;28;20553;-80
2020/12/10 15:06:53;;;;;;;33.33;16.30;;;;;;;;;;4985278;28;21188;-78
2020/12/10 15:09:58;;;;;;;29.90;14.13;;;;;;;;;;4996487;28;20570;-80
2020/12/10 15:13:02;;;;;;;29.50;15.17;;;;;;;;;;4997671;28;20534;-80
2020/12/10 15:16:06;;;;;;;26.73;14.90;;;;;;;;;;4986394;28;20625;-79
2020/12/10 15:19:11;;;;;;;28.60;15.37;;;;;;;;;;5011056;28;20542;-79
2020/12/10 15:22:15;;;;;;;30.43;15.10;;;;;;;;;;5002121;28;20552;-78
2020/12/10 15:25:20;;;;;;;31.30;15.93;;;;;;;;;;4998345;28;21170;-80
2020/12/10 15:28:24;;;;;;;34.27;18.67;;;;;;;;;;5004358;28;21112;-79
2020/12/10 15:31:28;;;;;;;35.00;18.40;;;;;;;;;;4974169;28;20606;-80
2020/12/10 15:34:32;;;;;;;34.37;16.17;;;;;;;;;;4997719;28;20921;-81
2020/12/10 15:37:36;;;;;;;32.93;15.93;;;;;;;;;;4997529;28;20625;-80
2020/12/10 15:40:41;;;;;;;27.37;14.03;;;;;;;;;;4986545;28;20580;-79
2020/12/10 15:43:46;;;;;;;31.30;14.87;;;;;;;;;;4979602;28;20588;-78
2020/12/10 15:46:50;;;;;;;30.87;14.27;;;;;;;;;;4984762;28;21012;-78
2020/12/10 15:49:54;;;;;;;29.17;14.37;;;;;;;;;;4997008;28;20562;-79
2020/12/10 15:52:58;;;;;;;29.17;14.63;;;;;;;;;;4986673;28;21211;-77
2020/12/10 15:56:06;;;;;;;29.13;14.40;;;;;;;;;;4988186;28;20628;-78
2020/12/10 15:59:10;;;;;;;33.00;15.27;;;;;;;;;;4998112;28;20618;-78
2020/12/10 16:02:17;;;;;;;29.53;15.33;;;;;;;;;;4993816;28;20606;-79
2020/12/10 16:05:22;;;;;;;30.43;15.10;;;;;;;;;;5010812;28;20588;-78
2020/12/10 16:08:25;;;;;;;28.37;13.20;;;;;;;;;;5003261;28;20597;-78
2020/12/10 16:11:35;;;;;;;31.93;15.77;;;;;;;;;;5008280;28;20629;-79
2020/12/10 16:14:39;;;;;;;30.03;14.87;;;;;;;;;;4992647;28;20585;-78
2020/12/10 16:17:44;;;;;;;28.73;14.13;;;;;;;;;;4981234;28;20636;-78
2020/12/10 16:20:49;;;;;;;31.67;17.03;;;;;;;;;;4981333;28;20597;-78
2020/12/10 16:23:53;;;;;;;31.57;14.40;;;;;;;;;;4999170;28;20596;-78
2020/12/10 16:26:57;;;;;;;31.23;14.43;;;;;;;;;;4999214;28;20657;-78
2020/12/10 16:30:04;;;;;;;30.67;14.97;;;;;;;;;;5005836;28;20532;-77
2020/12/10 16:33:08;;;;;;;33.13;15.27;;;;;;;;;;5005807;28;20608;-77
2020/12/10 16:36:16;;;;;;;31.70;15.33;;;;;;;;;;5026960;28;20627;-77
2020/12/10 16:39:23;;;;;;;29.47;14.83;;;;;;;;;;4995076;28;20585;-77
2020/12/10 16:42:27;;;;;;;31.50;14.73;;;;;;;;;;5001455;28;20673;-76
2020/12/10 16:45:31;;;;;;;33.17;15.47;;;;;;;;;;5018191;28;20545;-79
2020/12/10 16:48:35;;;;;;;37.67;16.90;;;;;;;;;;5016283;28;20596;-78
2020/12/10 16:51:39;;;;;;;32.00;14.80;;;;;;;;;;5015103;28;20635;-77
2020/12/10 16:54:44;;;;;;;31.77;15.80;;;;;;;;;;4998126;28;20593;-78
2020/12/10 16:57:48;;;;;;;31.07;15.27;;;;;;;;;;4984496;28;20629;-76
2020/12/10 17:00:53;;;;;;;29.73;14.80;;;;;;;;;;4996245;28;20597;-76
2020/12/10 17:03:57;;;;;;;30.77;14.80;;;;;;;;;;5019434;28;20615;-77
2020/12/10 17:07:02;;;;;;;33.47;15.87;;;;;;;;;;5016182;28;20644;-77
2020/12/10 17:10:06;;;;;;;31.90;14.87;;;;;;;;;;5014787;28;20545;-77
2020/12/10 17:13:11;;;;;;;29.23;13.53;;;;;;;;;;5015194;28;20619;-76
2020/12/10 17:16:16;;;;;;;28.87;14.23;;;;;;;;;;5012578;28;20637;-76
2020/12/10 17:19:23;;;;;;;29.30;14.10;;;;;;;;;;5009665;28;20596;-76
2020/12/10 17:22:28;;;;;;;31.60;15.23;;;;;;;;;;5004393;28;20621;-76
2020/12/10 17:25:33;;;;;;;28.23;14.40;;;;;;;;;;5006624;28;20597;-76
2020/12/10 17:28:38;;;;;;;30.33;14.43;;;;;;;;;;4996263;28;20882;-75
2020/12/10 17:31:41;;;;;;;28.33;13.23;;;;;;;;;;5006489;28;20982;-77
2020/12/10 17:34:46;;;;;;;26.67;13.83;;;;;;;;;;5002130;28;21158;-77
2020/12/10 17:37:50;;;;;;;31.83;14.47;;;;;;;;;;4992296;28;20644;-76
2020/12/10 17:40:54;;;;;;;35.03;15.83;;;;;;;;;;5002847;28;20581;-76
2020/12/10 17:43:58;;;;;;;33.60;15.73;;;;;;;;;;4994922;28;20537;-75
2020/12/10 17:47:02;;;;;;;33.67;15.43;;;;;;;;;;5005197;28;20661;-77
2020/12/10 17:50:06;;;;;;;31.03;14.93;;;;;;;;;;5005923;28;20604;-78
2020/12/10 17:53:11;;;;;;;31.53;14.57;;;;;;;;;;5012053;28;20624;-76
2020/12/10 17:56:15;;;;;;;32.20;14.87;;;;;;;;;;5015142;28;20648;-76
2020/12/10 17:59:19;;;;;;;31.47;13.33;;;;;;;;;;4995033;28;20550;-76
2020/12/10 18:02:23;;;;;;;28.23;14.40;;;;;;;;;;5012998;28;20624;-76